Time;durP1;ratioP1;P1;durP2;ratioP2;P2;SDS_P1;SDS_P2;PMS_P1;PMS_P2;Temp;Humidity;BMP_temperature;BMP_pressure;BME280_temperature;BME280_humidity;BME280_pressure;Samples;Min_cycle;Max_cycle;Signal;HPM_P1;HPM_P2
2022/03/16 00:00:03;;;;;;;11.73;9.80;;;8.20;99.90;;;;;;4926153;28;20465;-86
2022/03/16 00:02:51;;;;;;;11.20;9.53;;;8.10;99.90;;;;;;4928285;28;20903;-85
2022/03/16 00:05:26;;;;;;;11.57;8.97;;;8.10;99.90;;;;;;4952252;28;20496;-83
2022/03/16 00:08:08;;;;;;;11.07;9.93;;;8.00;99.90;;;;;;4929189;28;20448;-85
2022/03/16 00:11:04;;;;;;;10.43;9.33;;;8.00;99.90;;;;;;4944538;28;20516;-86
2022/03/16 00:13:45;;;;;;;10.93;9.27;;;8.00;99.90;;;;;;4894857;29;20531;-87
2022/03/16 00:16:16;;;;;;;11.97;9.70;;;8.50;99.90;;;;;;4949825;28;20473;-83
2022/03/16 00:22:51;;;;;;;10.63;9.53;;;7.90;99.90;;;;;;4954511;28;20456;-84
2022/03/16 00:28:38;;;;;;;10.53;9.10;;;7.90;99.90;;;;;;5009663;28;20488;-85
2022/03/16 00:31:06;;;;;;;14.43;10.97;;;8.00;99.90;;;;;;4996924;28;20936;-84
2022/03/16 00:33:33;;;;;;;12.53;10.00;;;8.10;99.90;;;;;;5014113;28;20474;-86
2022/03/16 00:36:00;;;;;;;12.37;9.87;;;7.90;99.90;;;;;;5031524;28;20474;-84
2022/03/16 00:38:27;;;;;;;11.43;9.70;;;7.90;99.90;;;;;;5015892;28;20447;-86
2022/03/16 00:40:54;;;;;;;10.63;9.50;;;7.80;99.90;;;;;;5009687;28;20533;-85
2022/03/16 00:43:20;;;;;;;10.53;9.47;;;7.70;99.90;;;;;;4990107;28;20470;-84
2022/03/16 00:45:47;;;;;;;11.20;8.63;;;7.70;99.90;;;;;;4997624;28;21360;-87
2022/03/16 00:48:14;;;;;;;9.67;8.77;;;7.60;99.90;;;;;;5013190;28;20499;-86
2022/03/16 00:50:41;;;;;;;10.80;9.70;;;7.50;99.90;;;;;;5009714;28;21101;-85
2022/03/16 00:53:11;;;;;;;10.57;9.47;;;7.50;99.90;;;;;;5009845;28;20463;-85
2022/03/16 00:55:56;;;;;;;9.93;8.93;;;7.50;99.90;;;;;;5007638;28;20592;-86
2022/03/16 00:58:35;;;;;;;10.00;8.63;;;7.40;99.90;;;;;;5019460;28;20493;-85
2022/03/16 01:01:05;;;;;;;9.33;8.40;;;7.40;99.90;;;;;;5008815;28;20453;-83
2022/03/16 01:03:41;;;;;;;10.20;9.30;;;7.20;99.90;;;;;;5011161;28;20481;-86
2022/03/16 01:06:20;;;;;;;10.90;8.80;;;7.20;99.90;;;;;;5009245;28;20497;-83
2022/03/16 01:08:54;;;;;;;9.83;8.70;;;7.50;99.90;;;;;;5008059;28;21034;-82
2022/03/16 01:11:26;;;;;;;10.60;8.70;;;7.40;99.90;;;;;;5010735;28;20493;-85
2022/03/16 01:13:53;;;;;;;9.00;7.93;;;7.40;99.90;;;;;;5024719;28;20469;-84
2022/03/16 01:16:57;;;;;;;11.10;9.90;;;7.30;99.90;;;;;;5005430;28;20517;-86
2022/03/16 01:19:38;;;;;;;13.60;10.03;;;7.20;99.90;;;;;;5022733;28;20538;-85
2022/03/16 01:22:06;;;;;;;11.83;8.57;;;7.30;99.90;;;;;;5007521;28;20866;-83
2022/03/16 01:24:45;;;;;;;9.83;8.83;;;7.20;99.90;;;;;;5010138;28;20797;-82
2022/03/16 01:27:51;;;;;;;;;;;;;;;;;;;;;
2022/03/16 01:30:46;;;;;;;9.73;8.23;;;7.10;99.90;;;;;;5013454;28;20495;-83
2022/03/16 01:33:33;;;;;;;9.63;8.63;;;7.10;99.90;;;;;;5009335;28;20463;-84
2022/03/16 01:36:27;;;;;;;10.67;8.07;;;7.10;99.90;;;;;;5008976;28;20581;-82
2022/03/16 01:39:13;;;;;;;9.20;8.00;;;7.30;99.90;;;;;;5010416;28;20493;-82
2022/03/16 01:41:56;;;;;;;8.63;7.70;;;7.20;99.90;;;;;;5005519;28;20843;-84
2022/03/16 01:45:33;;;;;;;10.30;9.20;;;7.30;99.90;;;;;;5007607;28;20455;-84
2022/03/16 01:48:10;;;;;;;8.40;7.27;;;7.10;99.90;;;;;;5007570;28;20466;-85
2022/03/16 01:51:18;;;;;;;10.00;9.00;;;7.00;99.90;;;;;;4999616;28;20478;-84
2022/03/16 01:54:29;;;;;;;9.30;8.40;;;7.00;99.90;;;;;;5010413;28;20458;-84
2022/03/16 01:57:24;;;;;;;9.60;8.57;;;7.00;99.90;;;;;;5009039;28;20474;-83
2022/03/16 02:00:39;;;;;;;9.90;8.10;;;6.90;99.90;;;;;;5007483;28;20482;-83
2022/03/16 02:03:35;;;;;;;8.83;7.73;;;6.90;99.90;;;;;;5008278;28;20513;-82
2022/03/16 02:06:24;;;;;;;9.43;7.70;;;6.80;99.90;;;;;;5005903;28;20474;-82
2022/03/16 02:08:55;;;;;;;9.73;8.73;;;7.00;99.90;;;;;;4993882;28;20561;-83
2022/03/16 02:11:50;;;;;;;10.13;9.03;;;7.20;99.90;;;;;;5011600;28;20477;-84
2022/03/16 02:15:03;;;;;;;11.70;9.10;;;7.30;99.90;;;;;;5013601;28;20450;-84
2022/03/16 02:17:34;;;;;;;9.33;7.97;;;7.20;99.90;;;;;;5008843;28;20960;-83
2022/03/16 02:20:01;;;;;;;10.33;9.33;;;7.00;99.90;;;;;;5010424;28;20453;-82
2022/03/16 02:22:33;;;;;;;8.90;7.80;;;6.80;99.90;;;;;;5011517;28;20888;-84
2022/03/16 02:25:36;;;;;;;9.80;8.63;;;7.10;99.90;;;;;;5008861;28;20454;-86
2022/03/16 02:28:05;;;;;;;11.57;9.70;;;7.10;99.90;;;;;;5012252;28;20453;-82
2022/03/16 02:34:07;;;;;;;10.73;9.67;;;7.10;99.90;;;;;;4971062;28;20547;-84
2022/03/16 02:36:34;;;;;;;11.27;10.00;;;7.10;99.90;;;;;;4994079;28;20481;-84
2022/03/16 02:46:32;;;;;;;12.73;10.87;;;7.10;99.90;;;;;;4993227;28;20478;-87
2022/03/16 02:49:23;;;;;;;11.97;10.33;;;6.90;99.90;;;;;;5026387;28;20554;-87
2022/03/16 02:51:53;;;;;;;10.83;9.73;;;6.90;99.90;;;;;;5032531;28;20486;-88
2022/03/16 03:02:44;;;;;;;10.90;9.73;;;6.60;99.90;;;;;;1262791;26;20483;-84
2022/03/16 03:13:45;;;;;;;10.97;9.83;;;6.60;99.90;;;;;;5007386;28;20820;-84
2022/03/16 03:16:48;;;;;;;11.70;10.13;;;6.50;99.90;;;;;;4944518;28;20500;-83
2022/03/16 03:20:02;;;;;;;13.20;10.70;;;6.50;99.90;;;;;;4921217;29;20462;-83
2022/03/16 03:23:06;;;;;;;11.33;10.20;;;6.50;99.90;;;;;;4935060;29;20473;-82
2022/03/16 03:26:33;;;;;;;13.97;10.50;;;6.50;99.90;;;;;;4920787;29;20454;-82
2022/03/16 03:33:24;;;;;;;12.80;10.77;;;6.30;99.90;;;;;;4892318;29;20482;-82
2022/03/16 03:36:43;;;;;;;11.87;8.90;;;6.50;99.90;;;;;;4972311;22;21465;-81
2022/03/16 03:39:43;;;;;;;14.87;11.07;;;6.50;99.90;;;;;;5003052;28;20982;-84
2022/03/16 03:43:15;;;;;;;14.07;11.23;;;6.40;99.90;;;;;;5003942;28;21062;-84
2022/03/16 03:46:27;;;;;;;12.20;9.83;;;6.20;99.90;;;;;;5004483;28;20487;-81
2022/03/16 03:49:32;;;;;;;11.30;10.17;;;6.00;99.90;;;;;;5002226;28;20526;-81
2022/03/16 03:52:48;;;;;;;12.33;10.53;;;6.20;99.90;;;;;;4982704;28;20458;-83
2022/03/16 03:55:33;;;;;;;9.47;8.43;;;6.10;99.90;;;;;;4987394;28;20549;-82
2022/03/16 03:58:38;;;;;;;10.00;8.80;;;6.00;99.90;;;;;;5007788;28;20552;-83
2022/03/16 04:05:32;;;;;;;;;;;;;;;;;;;;;
2022/03/16 04:09:07;;;;;;;;;;;;;;;;;;;;;
2022/03/16 04:12:26;;;;;;;11.00;9.70;;;5.90;99.90;;;;;;4955735;28;20610;-85
2022/03/16 04:15:53;;;;;;;12.00;10.33;;;6.00;99.90;;;;;;4973125;28;20546;-82
2022/03/16 04:18:52;;;;;;;11.33;9.30;;;5.80;99.90;;;;;;4942301;28;20526;-82
2022/03/16 04:22:03;;;;;;;11.50;9.90;;;5.70;99.90;;;;;;4886338;29;20466;-83
2022/03/16 04:25:14;;;;;;;12.47;10.50;;;5.60;99.90;;;;;;4875738;29;20475;-82
2022/03/16 04:28:09;;;;;;;13.00;10.63;;;5.80;99.90;;;;;;4884628;29;20997;-84
2022/03/16 04:35:03;;;;;;;12.77;10.20;;;5.80;99.90;;;;;;4880935;29;20460;-82
2022/03/16 04:38:12;;;;;;;12.13;9.97;;;5.60;99.90;;;;;;4869492;29;20481;-84
2022/03/16 04:41:09;;;;;;;10.87;8.70;;;5.40;99.90;;;;;;4869112;29;20490;-84
2022/03/16 04:43:52;;;;;;;12.90;9.93;;;5.60;99.90;;;;;;4898309;29;21258;-83
2022/03/16 04:46:46;;;;;;;10.03;8.83;;;5.40;99.90;;;;;;4903239;29;20475;-84
2022/03/16 04:49:57;;;;;;;12.40;10.23;;;5.60;99.90;;;;;;4904209;29;20486;-83
2022/03/16 04:53:10;;;;;;;10.97;9.70;;;5.70;99.90;;;;;;4904079;29;21613;-83
2022/03/16 04:55:57;;;;;;;12.80;8.97;;;5.60;99.90;;;;;;4887745;29;20498;-84
2022/03/16 04:59:10;;;;;;;12.17;10.03;;;5.70;99.90;;;;;;4951665;28;21153;-82
2022/03/16 05:02:30;;;;;;;;;;;;;;;;;;;;;
2022/03/16 05:08:04;;;;;;;9.90;8.47;;;5.30;99.90;;;;;;5028828;22;20508;-84
2022/03/16 05:11:08;;;;;;;9.80;8.80;;;5.20;99.90;;;;;;5020021;28;20482;-84
2022/03/16 05:14:15;;;;;;;9.53;8.10;;;5.20;99.90;;;;;;4940486;29;20451;-86
2022/03/16 05:20:29;;;;;;;10.57;8.23;;;5.50;99.90;;;;;;4929292;29;20508;-84
2022/03/16 05:23:28;;;;;;;11.50;8.80;;;5.50;99.90;;;;;;4925165;29;20552;-84
2022/03/16 05:25:55;;;;;;;10.17;8.47;;;5.70;99.90;;;;;;4930418;28;20603;-86
2022/03/16 05:29:11;;;;;;;11.03;8.57;;;5.70;99.90;;;;;;4921352;29;20484;-82
2022/03/16 05:32:46;;;;;;;10.33;8.70;;;5.50;99.90;;;;;;4927115;29;20488;-83
2022/03/16 05:35:43;;;;;;;8.87;7.87;;;5.50;99.90;;;;;;4917269;28;20493;-84
2022/03/16 05:38:54;;;;;;;9.70;7.93;;;5.30;99.90;;;;;;4952870;28;20466;-83
2022/03/16 05:42:23;;;;;;;10.80;8.30;;;5.50;99.90;;;;;;4998710;28;20458;-84
2022/03/16 05:46:02;;;;;;;9.80;7.33;;;5.70;99.90;;;;;;4999701;28;21649;-83
2022/03/16 05:56:15;;;;;;;7.90;6.60;;;5.20;99.90;;;;;;4946050;28;20468;-84
2022/03/16 06:03:25;;;;;;;8.70;6.70;;;5.20;99.90;;;;;;4946610;28;20459;-84
2022/03/16 06:06:20;;;;;;;11.30;7.63;;;5.30;99.90;;;;;;4933889;28;20523;-81
2022/03/16 06:09:52;;;;;;;;;;;;;;;;;;;;;
2022/03/16 06:13:27;;;;;;;8.20;7.30;;;5.70;99.90;;;;;;4959789;28;20471;-83
2022/03/16 06:16:59;;;;;;;9.87;8.87;;;5.80;99.90;;;;;;4939091;28;20555;-85
2022/03/16 06:19:41;;;;;;;8.07;7.10;;;5.80;99.90;;;;;;4954846;28;20498;-86
2022/03/16 06:22:24;;;;;;;9.80;7.57;;;6.10;99.90;;;;;;4951764;28;20569;-85
2022/03/16 06:25:31;;;;;;;11.47;7.80;;;6.00;99.90;;;;;;4933701;28;20465;-84
2022/03/16 06:28:17;;;;;;;11.87;7.03;;;5.90;99.90;;;;;;4993253;28;20881;-86
2022/03/16 06:31:36;;;;;;;;;;;;;;;;;;;;;
2022/03/16 06:35:11;;;;;;;13.10;8.70;;;5.80;99.90;;;;;;5010856;28;20462;-83
2022/03/16 06:38:37;;;;;;;10.80;9.70;;;6.00;99.90;;;;;;4953997;28;20463;-84
2022/03/16 06:41:41;;;;;;;11.70;9.50;;;6.00;99.90;;;;;;4944918;28;20784;-83
2022/03/16 06:48:12;;;;;;;13.57;10.93;;;5.90;99.90;;;;;;4954693;28;20474;-85
2022/03/16 06:51:24;;;;;;;17.37;11.57;;;6.20;99.90;;;;;;4960322;28;20484;-84
2022/03/16 06:57:37;;;;;;;18.60;12.80;;;6.60;99.90;;;;;;4982990;28;20514;-84
2022/03/16 07:00:37;;;;;;;16.43;13.27;;;6.50;99.90;;;;;;4977244;28;20461;-85
2022/03/16 07:04:09;;;;;;;16.53;12.27;;;6.40;99.90;;;;;;4908429;29;20455;-85
2022/03/16 07:07:30;;;;;;;17.50;12.83;;;6.40;99.90;;;;;;4909611;29;20518;-84
2022/03/16 07:10:59;;;;;;;19.47;13.77;;;6.70;99.90;;;;;;4907186;29;20463;-81
2022/03/16 07:27:18;;;;;;;14.60;9.77;;;7.20;99.90;;;;;;4927057;29;20525;-83
2022/03/16 07:30:42;;;;;;;13.80;10.93;;;8.10;99.90;;;;;;4917732;29;20493;-82
2022/03/16 07:33:37;;;;;;;10.27;8.40;;;8.70;99.90;;;;;;4936321;29;20545;-84
2022/03/16 07:36:28;;;;;;;15.10;10.77;;;9.50;99.90;;;;;;4925731;28;20561;-88
2022/03/16 07:39:38;;;;;;;11.20;7.50;;;10.50;98.90;;;;;;4987218;28;20497;-85
2022/03/16 07:42:54;;;;;;;13.33;9.20;;;10.90;95.60;;;;;;4926857;29;20478;-85
2022/03/16 07:46:06;;;;;;;;;;;;;;;;;;;;;
2022/03/16 07:49:23;;;;;;;8.50;7.23;;;12.20;94.60;;;;;;4925846;29;20501;-85
2022/03/16 07:52:22;;;;;;;10.27;8.43;;;11.50;93.50;;;;;;4842703;29;20500;-86
2022/03/16 08:03:03;;;;;;;9.77;8.43;;;13.40;92.70;;;;;;4862224;29;20627;-84
2022/03/16 08:06:17;;;;;;;10.67;9.13;;;14.30;89.60;;;;;;4831947;29;20476;-87
2022/03/16 08:09:22;;;;;;;10.60;8.60;;;13.20;89.80;;;;;;4853811;29;20816;-84
2022/03/16 08:12:41;;;;;;;10.73;9.47;;;11.40;93.30;;;;;;4842189;29;20485;-86
2022/03/16 08:15:35;;;;;;;10.27;9.10;;;10.40;96.20;;;;;;4835106;29;20611;-85
2022/03/16 08:21:38;;;;;;;;;;;;;;;;;;;;;
2022/03/16 08:24:28;;;;;;;10.13;9.10;;;9.60;99.90;;;;;;4847137;29;20475;-84
2022/03/16 08:27:39;;;;;;;11.60;9.60;;;9.80;99.90;;;;;;4849828;29;20485;-86
2022/03/16 08:30:39;;;;;;;12.40;10.30;;;9.70;99.90;;;;;;4885483;29;20556;-85
2022/03/16 08:34:21;;;;;;;8.67;7.63;;;9.50;99.90;;;;;;4904391;29;20487;-84
2022/03/16 08:40:26;;;;;;;11.60;10.27;;;9.60;99.90;;;;;;4877136;29;20590;-85
2022/03/16 08:42:54;;;;;;;11.17;9.83;;;9.60;99.90;;;;;;4885289;29;21679;-85
2022/03/16 08:45:21;;;;;;;12.20;10.07;;;9.80;99.90;;;;;;4912279;29;20824;-87
2022/03/16 08:48:03;;;;;;;10.70;8.93;;;10.00;99.80;;;;;;4906473;29;20770;-89
2022/03/16 08:50:41;;;;;;;11.23;9.60;;;10.00;99.80;;;;;;4933231;29;20439;-87
2022/03/16 08:53:07;;;;;;;12.80;9.00;;;9.70;99.90;;;;;;4921957;29;20596;-85
2022/03/16 08:55:34;;;;;;;10.33;9.23;;;9.90;99.90;;;;;;4926213;29;20474;-83
2022/03/16 08:58:22;;;;;;;10.23;8.43;;;9.70;99.90;;;;;;4906330;29;20470;-85
2022/03/16 09:01:11;;;;;;;11.80;10.20;;;9.80;99.90;;;;;;4904467;29;20618;-86
2022/03/16 09:03:47;;;;;;;12.43;10.50;;;9.90;99.90;;;;;;4906054;29;20489;-84
2022/03/16 09:06:53;;;;;;;11.67;9.00;;;10.10;99.90;;;;;;4890263;29;20525;-86
2022/03/16 09:09:57;;;;;;;11.20;9.20;;;10.30;99.90;;;;;;4886344;29;20478;-84
2022/03/16 09:12:41;;;;;;;11.30;8.63;;;10.20;99.70;;;;;;4888058;29;20530;-84
2022/03/16 09:15:10;;;;;;;11.17;9.50;;;10.30;99.50;;;;;;4887157;29;20475;-85
2022/03/16 09:17:39;;;;;;;9.60;8.10;;;10.50;99.20;;;;;;4942362;28;20570;-84
2022/03/16 09:20:35;;;;;;;11.10;9.87;;;10.50;99.50;;;;;;4990335;28;20581;-82
2022/03/16 09:23:24;;;;;;;10.30;7.37;;;10.40;98.90;;;;;;4982878;28;21018;-84
2022/03/16 09:26:46;;;;;;;9.30;7.90;;;10.00;99.30;;;;;;4981348;28;20482;-84
2022/03/16 09:33:17;;;;;;;9.50;7.63;;;10.20;99.90;;;;;;4982130;28;20483;-85
2022/03/16 09:36:17;;;;;;;9.40;8.40;;;10.60;99.10;;;;;;4971234;28;20479;-86
2022/03/16 09:39:01;;;;;;;10.37;8.83;;;10.60;98.80;;;;;;4963642;28;20491;-85
2022/03/16 09:41:44;;;;;;;9.40;8.37;;;10.60;98.60;;;;;;4961231;28;20471;-87
2022/03/16 09:44:25;;;;;;;7.57;6.57;;;;;;;;;;4975751;28;21236;-86
2022/03/16 09:47:23;;;;;;;10.30;7.97;;;11.10;97.00;;;;;;4960164;28;20610;-85
2022/03/16 09:49:52;;;;;;;11.30;9.33;;;11.20;96.90;;;;;;4984654;28;20444;-84
2022/03/16 09:53:05;;;;;;;8.37;7.47;;;11.10;97.40;;;;;;4969254;28;20498;-83
2022/03/16 09:55:40;;;;;;;10.57;7.90;;;11.10;97.20;;;;;;4964263;28;20479;-85
2022/03/16 09:58:15;;;;;;;8.90;7.97;;;11.90;96.90;;;;;;4967200;28;20475;-87
2022/03/16 10:01:05;;;;;;;6.83;5.57;;;13.20;94.10;;;;;;4955310;28;20468;-83
2022/03/16 10:03:55;;;;;;;6.37;5.53;;;13.10;92.30;;;;;;4975756;28;20533;-84
2022/03/16 10:16:11;;;;;;;8.10;7.30;;;14.90;87.40;;;;;;4965874;28;20559;-83
2022/03/16 10:18:38;;;;;;;8.40;7.50;;;15.30;86.60;;;;;;4977717;28;20458;-85
2022/03/16 10:21:37;;;;;;;8.00;7.30;;;16.00;84.00;;;;;;4977498;28;20451;-85
2022/03/16 10:24:14;;;;;;;7.87;7.17;;;15.50;84.80;;;;;;4976091;28;20461;-85
2022/03/16 10:27:18;;;;;;;7.80;7.10;;;16.10;83.00;;;;;;4963383;28;20489;-84
2022/03/16 10:30:08;;;;;;;7.30;6.60;;;16.70;80.70;;;;;;4975769;28;21132;-85
2022/03/16 10:33:05;;;;;;;7.40;6.70;;;16.50;79.90;;;;;;4963113;28;20520;-83
2022/03/16 10:36:53;;;;;;;7.77;7.00;;;15.90;81.30;;;;;;4980297;28;20527;-85
2022/03/16 10:40:19;;;;;;;7.67;7.00;;;16.40;80.00;;;;;;4886898;29;20559;-85
2022/03/16 10:49:09;;;;;;;7.83;7.03;;;14.70;85.90;;;;;;5012474;28;20465;-85
2022/03/16 10:51:39;;;;;;;8.80;7.43;;;14.70;85.20;;;;;;4999033;28;20470;-86
2022/03/16 10:54:24;;;;;;;9.57;8.60;;;14.90;85.50;;;;;;5008423;28;20901;-83
2022/03/16 10:56:54;;;;;;;8.10;6.57;;;15.10;84.50;;;;;;5000395;28;20474;-84
2022/03/16 10:59:29;;;;;;;9.70;8.80;;;16.00;82.50;;;;;;5002539;28;20462;-85
2022/03/16 11:02:07;;;;;;;7.03;6.33;;;15.10;83.00;;;;;;4989740;28;20446;-85
2022/03/16 11:04:36;;;;;;;9.00;8.10;;;14.90;85.10;;;;;;5011795;28;20481;-84
2022/03/16 11:07:52;;;;;;;;;;;;;;;;;;;;;
2022/03/16 11:10:54;;;;;;;8.70;7.73;;;15.40;82.60;;;;;;4964655;29;20432;-83
2022/03/16 11:13:32;;;;;;;8.63;7.80;;;15.90;82.50;;;;;;4995269;28;20533;-86
2022/03/16 11:16:01;;;;;;;8.47;7.77;;;15.50;83.20;;;;;;5004555;28;20477;-84
2022/03/16 11:18:29;;;;;;;7.53;6.70;;;16.20;80.70;;;;;;5001995;28;20823;-84
2022/03/16 11:21:07;;;;;;;8.30;7.30;;;15.80;79.50;;;;;;4996479;28;20454;-84
2022/03/16 11:26:41;;;;;;;8.60;7.80;;;15.80;80.50;;;;;;5006065;28;20486;-84
2022/03/16 11:29:38;;;;;;;9.27;7.27;;;16.10;80.70;;;;;;4995606;28;20517;-85
2022/03/16 11:32:11;;;;;;;8.50;7.70;;;15.70;81.50;;;;;;4989347;28;20482;-85
2022/03/16 11:34:38;;;;;;;7.07;6.43;;;15.50;82.00;;;;;;5009834;28;20474;-85
2022/03/16 11:37:09;;;;;;;7.57;6.80;;;15.00;83.80;;;;;;5004730;28;20451;-83
2022/03/16 11:39:46;;;;;;;8.07;7.20;;;15.30;83.70;;;;;;5021487;28;20442;-83
2022/03/16 11:42:19;;;;;;;7.10;6.50;;;15.40;82.90;;;;;;5005478;28;20821;-85
2022/03/16 11:45:44;;;;;;;6.33;5.73;;;15.90;82.20;;;;;;5016622;28;20545;-85
2022/03/16 11:48:31;;;;;;;6.80;6.20;;;15.40;81.60;;;;;;4977851;28;20471;-84
2022/03/16 11:51:13;;;;;;;7.23;6.50;;;15.70;81.10;;;;;;5013788;28;20468;-85
2022/03/16 11:54:01;;;;;;;8.60;6.90;;;15.70;82.10;;;;;;5012526;28;20443;-85
2022/03/16 11:56:36;;;;;;;7.23;6.47;;;15.50;82.10;;;;;;4986112;28;20483;-84
2022/03/16 11:59:14;;;;;;;7.60;6.90;;;15.60;81.10;;;;;;5000232;28;20453;-84
2022/03/16 12:02:14;;;;;;;8.00;7.00;;;15.50;81.60;;;;;;5016306;28;20461;-85
2022/03/16 12:04:47;;;;;;;7.37;6.67;;;15.30;83.50;;;;;;5000637;28;20483;-85
2022/03/16 12:07:23;;;;;;;7.33;6.67;;;15.70;82.40;;;;;;5005764;28;20801;-84
2022/03/16 12:09:53;;;;;;;6.33;5.73;;;15.60;81.10;;;;;;5007892;28;20451;-84
2022/03/16 12:15:56;;;;;;;6.87;6.27;;;15.80;81.60;;;;;;5010116;28;20568;-83
2022/03/16 12:18:26;;;;;;;8.57;7.77;;;16.20;80.30;;;;;;4997575;28;20450;-85
2022/03/16 12:21:08;;;;;;;6.97;6.37;;;16.10;78.90;;;;;;5017877;28;20943;-84
2022/03/16 12:23:54;;;;;;;7.33;6.63;;;16.10;79.20;;;;;;5002044;28;20454;-85
2022/03/16 12:28:55;;;;;;;7.93;7.13;;;16.20;80.40;;;;;;5018443;28;20524;-84
2022/03/16 12:29:38;;;;;;;7.47;6.77;;;16.10;79.30;;;;;;5007351;28;20450;-84
2022/03/16 12:32:20;;;;;;;8.37;6.70;;;16.00;79.70;;;;;;5000549;28;20471;-84
2022/03/16 12:34:57;;;;;;;7.50;6.90;;;15.90;79.40;;;;;;5000643;28;20469;-83
2022/03/16 12:37:26;;;;;;;7.43;5.87;;;15.80;80.80;;;;;;5016092;28;20878;-83
2022/03/16 12:40:29;;;;;;;7.87;7.10;;;15.80;80.70;;;;;;4998886;28;20450;-85
2022/03/16 12:42:56;;;;;;;7.83;7.10;;;16.10;80.60;;;;;;5002947;28;20546;-84
2022/03/16 12:45:30;;;;;;;7.10;6.17;;;16.40;80.00;;;;;;5012536;28;20529;-86
2022/03/16 12:48:12;;;;;;;7.17;6.53;;;16.10;79.30;;;;;;5010662;28;20466;-85
2022/03/16 12:50:44;;;;;;;9.03;6.40;;;15.80;80.20;;;;;;5006537;28;20534;-84
2022/03/16 12:53:59;;;;;;;7.60;6.90;;;15.50;80.60;;;;;;5014234;28;20538;-85
2022/03/16 12:56:26;;;;;;;6.93;6.30;;;15.20;81.90;;;;;;4992724;28;20474;-85
2022/03/16 12:58:56;;;;;;;7.97;7.17;;;15.40;82.70;;;;;;4985134;28;20459;-86
2022/03/16 13:01:28;;;;;;;8.30;7.60;;;15.50;81.70;;;;;;5002052;28;20454;-83
2022/03/16 13:04:17;;;;;;;6.97;6.30;;;15.30;83.00;;;;;;5011191;28;20486;-81
2022/03/16 13:06:45;;;;;;;7.07;6.33;;;15.40;82.50;;;;;;5004478;28;20554;-84
2022/03/16 13:09:15;;;;;;;8.20;7.40;;;15.50;82.00;;;;;;5012774;28;20911;-84
2022/03/16 13:12:08;;;;;;;8.40;7.60;;;15.20;82.70;;;;;;4997727;28;20499;-83
2022/03/16 13:14:47;;;;;;;7.70;7.00;;;15.50;82.80;;;;;;5012707;28;20529;-82
2022/03/16 13:17:23;;;;;;;8.90;7.50;;;15.40;83.00;;;;;;4997493;28;20443;-83
2022/03/16 13:19:58;;;;;;;6.83;6.23;;;15.40;82.30;;;;;;5015002;28;20465;-81
2022/03/16 13:23:01;;;;;;;7.77;7.07;;;15.20;84.00;;;;;;5013825;28;20967;-84
2022/03/16 13:28:34;;;;;;;7.73;7.03;;;15.40;83.30;;;;;;5016645;28;20450;-83
2022/03/16 13:31:04;;;;;;;7.10;6.27;;;15.10;84.50;;;;;;4997478;28;20782;-84
2022/03/16 13:33:32;;;;;;;8.13;7.33;;;15.20;83.40;;;;;;5012814;28;20475;-83
2022/03/16 13:36:15;;;;;;;8.17;6.70;;;15.00;84.60;;;;;;5017130;28;20557;-84
2022/03/16 13:38:41;;;;;;;8.53;7.63;;;15.20;84.20;;;;;;5001044;28;20450;-82
2022/03/16 13:41:16;;;;;;;7.60;6.90;;;15.10;84.00;;;;;;5017552;28;20925;-81
2022/03/16 13:43:44;;;;;;;7.70;6.90;;;14.90;84.60;;;;;;4999113;28;20464;-82
2022/03/16 13:46:17;;;;;;;7.60;6.90;;;14.90;85.30;;;;;;5001289;28;20494;-84
2022/03/16 13:48:45;;;;;;;7.13;6.43;;;15.00;85.00;;;;;;4990133;28;20466;-80
2022/03/16 13:51:13;;;;;;;9.43;6.83;;;14.80;85.00;;;;;;4999855;28;20459;-82
2022/03/16 13:54:03;;;;;;;7.43;6.67;;;14.80;85.90;;;;;;4998205;28;20514;-82
2022/03/16 13:56:43;;;;;;;8.13;6.97;;;15.00;85.70;;;;;;5001086;28;20499;-80
2022/03/16 13:59:12;;;;;;;7.33;6.63;;;14.80;86.00;;;;;;5010264;28;21012;-84
2022/03/16 14:01:45;;;;;;;7.53;6.83;;;14.60;86.40;;;;;;4993261;28;20824;-83
2022/03/16 14:04:29;;;;;;;8.00;7.20;;;15.00;86.00;;;;;;5005780;28;20836;-85
2022/03/16 14:07:30;;;;;;;10.00;8.43;;;15.00;86.30;;;;;;5077986;23;20495;-86
2022/03/16 14:10:10;;;;;;;8.40;7.60;;;15.00;86.40;;;;;;4946745;29;20452;-84
2022/03/16 14:12:43;;;;;;;7.73;6.93;;;14.90;86.30;;;;;;4962277;29;20548;-83
2022/03/16 14:15:20;;;;;;;9.47;7.90;;;14.90;86.10;;;;;;4953070;28;20476;-83
2022/03/16 14:18:01;;;;;;;9.03;8.13;;;14.80;86.40;;;;;;4954229;29;20457;-84
2022/03/16 14:20:58;;;;;;;8.27;7.47;;;14.80;87.50;;;;;;4960985;28;20539;-81
2022/03/16 14:23:32;;;;;;;8.23;7.37;;;14.90;87.00;;;;;;4948091;28;20440;-84
2022/03/16 14:26:07;;;;;;;7.97;7.13;;;15.00;87.00;;;;;;4966184;29;20496;-84
2022/03/16 14:28:39;;;;;;;7.67;6.97;;;15.00;85.90;;;;;;4961075;28;20452;-83
2022/03/16 14:31:16;;;;;;;8.93;6.77;;;14.90;86.80;;;;;;4945102;29;20452;-85
2022/03/16 14:33:47;;;;;;;10.10;7.80;;;15.20;86.50;;;;;;4960833;28;20484;-84
2022/03/16 14:36:32;;;;;;;7.43;6.73;;;15.00;86.40;;;;;;4936826;28;20776;-84
2022/03/16 14:39:19;;;;;;;8.07;7.27;;;14.90;86.80;;;;;;4955604;28;20448;-83
2022/03/16 14:41:46;;;;;;;8.17;6.97;;;14.80;87.10;;;;;;4961653;29;20866;-82
2022/03/16 14:44:19;;;;;;;8.50;7.60;;;14.70;87.30;;;;;;4955184;28;20547;-82
2022/03/16 14:46:49;;;;;;;8.77;7.70;;;14.80;87.70;;;;;;4961143;29;20978;-83
2022/03/16 14:49:23;;;;;;;7.90;6.83;;;14.90;87.70;;;;;;4945162;29;20898;-85
2022/03/16 14:52:43;;;;;;;8.10;6.30;;;14.90;87.10;;;;;;4949208;29;20476;-83
2022/03/16 14:55:22;;;;;;;8.10;7.30;;;14.90;86.50;;;;;;4948830;29;20461;-83
2022/03/16 14:57:50;;;;;;;6.27;5.67;;;14.80;86.90;;;;;;4956219;29;20508;-82
2022/03/16 15:00:18;;;;;;;8.03;7.23;;;14.90;86.70;;;;;;4963574;28;20452;-81
2022/03/16 15:02:48;;;;;;;7.30;6.60;;;14.80;86.50;;;;;;4953441;29;20486;-82
2022/03/16 15:05:16;;;;;;;7.43;6.73;;;14.90;86.30;;;;;;4958166;29;20488;-82
2022/03/16 15:07:43;;;;;;;8.00;7.20;;;14.90;85.50;;;;;;4959498;28;20528;-82
2022/03/16 15:10:12;;;;;;;7.67;6.93;;;15.00;85.70;;;;;;4940754;29;20482;-83
2022/03/16 15:12:40;;;;;;;9.93;7.53;;;14.90;84.80;;;;;;4952682;28;20473;-83
2022/03/16 15:15:08;;;;;;;6.27;5.67;;;14.80;85.50;;;;;;4949407;28;20472;-82
2022/03/16 15:17:35;;;;;;;8.70;6.80;;;14.80;85.10;;;;;;4959285;28;20469;-82
2022/03/16 15:20:04;;;;;;;7.10;6.40;;;14.60;85.20;;;;;;4953324;29;20458;-82
2022/03/16 15:22:31;;;;;;;7.83;7.13;;;14.70;85.00;;;;;;4936157;28;20464;-83
2022/03/16 15:24:57;;;;;;;6.83;6.13;;;14.70;84.90;;;;;;4959088;28;20472;-81
2022/03/16 15:27:24;;;;;;;7.03;6.33;;;14.60;86.00;;;;;;4942965;29;20464;-80
2022/03/16 15:29:53;;;;;;;7.70;5.97;;;14.70;84.60;;;;;;4960321;28;20949;-83
2022/03/16 15:32:22;;;;;;;7.57;6.87;;;14.70;84.60;;;;;;4951384;28;20543;-83
2022/03/16 15:34:48;;;;;;;6.60;6.00;;;14.50;84.40;;;;;;4960008;28;20448;-83
2022/03/16 15:37:16;;;;;;;6.87;6.20;;;14.30;84.60;;;;;;4942336;29;20460;-81
2022/03/16 15:42:38;;;;;;;7.87;5.77;;;14.40;85.20;;;;;;4940595;29;20466;-83
2022/03/16 15:42:48;;;;;;;5.50;4.90;;;14.70;84.60;;;;;;4952766;29;20482;-82
2022/03/16 15:45:18;;;;;;;6.80;5.50;;;14.90;82.60;;;;;;4942368;28;20476;-81
2022/03/16 15:47:45;;;;;;;7.27;6.53;;;14.60;82.90;;;;;;4961261;28;20453;-83
2022/03/16 15:50:16;;;;;;;6.97;6.23;;;14.70;82.60;;;;;;4964382;29;20461;-83
2022/03/16 15:52:43;;;;;;;7.00;6.30;;;14.40;83.60;;;;;;4943581;29;20488;-83
2022/03/16 15:55:12;;;;;;;6.63;5.57;;;14.60;84.80;;;;;;4961631;28;20504;-83
2022/03/16 15:57:39;;;;;;;7.10;6.40;;;14.70;83.30;;;;;;4958809;29;20465;-82
2022/03/16 16:00:11;;;;;;;7.50;6.50;;;14.70;82.60;;;;;;4956023;28;20981;-82
2022/03/16 16:02:40;;;;;;;7.83;6.07;;;14.50;83.40;;;;;;4948197;28;20517;-83
2022/03/16 16:05:09;;;;;;;6.60;6.00;;;14.40;84.30;;;;;;4941030;29;20493;-83
2022/03/16 16:07:36;;;;;;;8.57;7.00;;;14.50;85.10;;;;;;4948652;28;20460;-84
2022/03/16 16:10:07;;;;;;;6.70;6.10;;;14.50;84.90;;;;;;4942984;29;20535;-82
2022/03/16 16:12:42;;;;;;;7.30;6.60;;;14.30;85.70;;;;;;4944060;29;20445;-82
2022/03/16 16:15:10;;;;;;;7.40;6.77;;;14.30;85.80;;;;;;4950885;29;20544;-83
2022/03/16 16:17:38;;;;;;;7.90;6.90;;;14.50;86.60;;;;;;4959426;28;20465;-83
2022/03/16 16:20:11;;;;;;;7.57;6.63;;;14.60;85.90;;;;;;4959685;28;20452;-83
2022/03/16 16:22:38;;;;;;;8.60;7.27;;;14.70;86.10;;;;;;4958595;29;20460;-82
2022/03/16 16:25:05;;;;;;;8.20;7.40;;;14.60;86.40;;;;;;4960242;29;20471;-82
2022/03/16 16:27:42;;;;;;;8.33;7.53;;;14.50;87.30;;;;;;4956001;28;20472;-83
2022/03/16 16:30:19;;;;;;;7.83;7.03;;;14.50;87.80;;;;;;4962817;29;20954;-84
2022/03/16 16:32:47;;;;;;;7.57;6.87;;;14.50;88.20;;;;;;4966120;29;20479;-85
2022/03/16 16:35:23;;;;;;;9.00;8.10;;;14.60;87.80;;;;;;4951878;29;20519;-85
2022/03/16 16:37:54;;;;;;;8.83;7.37;;;14.40;88.40;;;;;;4962144;29;20460;-81
2022/03/16 16:40:28;;;;;;;9.87;8.97;;;14.60;88.70;;;;;;4974832;29;20433;-85
2022/03/16 16:43:12;;;;;;;7.80;7.10;;;14.50;88.30;;;;;;4978625;28;20437;-83
2022/03/16 16:45:43;;;;;;;7.73;7.00;;;14.60;88.30;;;;;;4961152;29;20499;-85
2022/03/16 16:48:13;;;;;;;8.43;7.63;;;14.40;88.80;;;;;;4953009;28;20464;-82